Trutnov, Czech Republic
Current Conditions -  °F | °C
As of 5:00 AM on Thursday 18 Dec 2014 (Local Time) from LKPD Reporting Station
Overcast Overcast  
Wind Chill: 36°   Ceiling: 5400
Heat Index: 41°   Visibility: 6mi
Dew Point: 39°   Wind: 7mph
Humidity: 93%   Direction: 240°WSW
Pressure: 29.85"   Gusts: NA
Location:  50.57°N, 15.9°E
Report Text: LKPD 180400Z 24006KT 9999 SCT020 OVC054 05/04 Q1011 NOSIG
Loading
Personal Weather Stations






























Interactive Weather Map New forecast layout! Learn more

10-Day Weather Forecast

Advertisements
Track Severe Weather on mobile